Myanmar AT72 at Yangon on Nov 17th 2022, temporary runway excursion on landing

Last Update: November 25, 2022 / 20:40:04 GMT/Zulu time

Bookmark this article
Incident Facts

Date of incident
Nov 17, 2022

Classification
Incident

Flight number
UB-402

Destination
Yangon, Myanmar

Aircraft Registration
XY-AME

Aircraft Type
ATR ATR-72-200

ICAO Type Designator
AT72

Airport ICAO Code
VYYY

A Myanmar National Airlines Avions de Transport Regional ATR-72-212A, registration XY-AME performing flight UB-402 from Sittwe to Yangon (Myanmar), landed on Yangon's runway 21 at 14:15L (07:45Z) but veered sharply to the right briefly exiting the runway before the crew managed to steer the aircraft back onto the runway. The aircraft rolled out without further incident and taxied to the apron. There were no injuries.

The aircraft is still on the ground in Yangon on Nov 25th 2022.

Myanmar's CAA rated the occurrence a serious incident and opened an investigation. The damage to the aircraft was "unknown".

Metars:
VYYY 171000Z 08006KT 6000 -TSRA BKN015 FEW018CB OVC100 25/25 Q1007=
VYYY 170930Z 05006KT 6000 -TSRA BKN015 FEW018CB OVC100 25/25 Q1007=
VYYY 170900Z 18006KT 6000 -TSRA BKN015 FEW017CB OVC100 25/25 Q1007=
VYYY 170830Z 13005KT 6000 -TSRA BKN015 FEW017CB OVC100 26/26 Q1007=
VYYY 170800Z 13006KT 6000 -TSRA BKN015 FEW017CB OVC100 26/26 Q1007=
VYYY 170730Z 12005KT 6000 -TSRA BKN015 FEW017CB OVC100 27/26 Q1007=
VYYY 170630Z 16003KT 6000 DZ BKN015 FEW017CB OVC100 28/25 Q1007=
VYYY 170600Z 30007KT 7000 BKN017 FEW020TCU BKN110 31/27 Q1008 TEMPO 6000 -TSRA=
VYYY 170530Z 32008KT 7000 SCT017 FEW020TCU BKN110 32/25 Q1008=
VYYY 170500Z 27008KT 7000 SCT017 FEW020TCU BKN110 32/25 Q1009=
VYYY 170430Z 35008KT 7000 SCT017 FEW020TCU BKN110 30/24 Q1010=
Incident Facts

Date of incident
Nov 17, 2022

Classification
Incident

Flight number
UB-402

Destination
Yangon, Myanmar

Aircraft Registration
XY-AME

Aircraft Type
ATR ATR-72-200

ICAO Type Designator
AT72

Airport ICAO Code
VYYY

This article is published under license from Avherald.com. © of text by Avherald.com.
Article source

You can read 2 more free articles without a subscription.

Subscribe now and continue reading without any limits!

Are you a subscriber? Login
Subscribe

Read unlimited articles and receive our daily update briefing. Gain better insights into what is happening in commercial aviation safety.

Free newsletter

Want to know more and stay ahead? Get our free weekly newsletter and join 5604 existing subscribers.

By subscribing, you accept our terms and conditions and confirm that you've read our privacy policy.

Send tip

Support AeroInside by sending a small tip amount.

Related articles

Newest articles

Subscribe today

Are you researching aviation incidents? Get access to AeroInside Insights, unlimited read access and receive the daily newsletter.

Pick your plan and subscribe

Partner

Blockaviation logo

A new way to document and demonstrate airworthiness compliance and aircraft value. Find out more.

Virtual Speech logo

ELITE Simulation Solutions is a leading global provider of Flight Simulation Training Devices, IFR training software as well as flight controls and related services. Find out more.

Get updates

Never miss an article from AeroInside. Subscribe to our free weekly newsletter and join 5604 existing subscribers.

By subscribing, you accept our terms and conditions and that you've read our privacy policy.

AeroInside Blog
Popular aircraft
Airbus A320
Boeing 737-800
Boeing 737-800 MAX
Popular airlines
American Airlines
United
Delta
Air Canada
Lufthansa
British Airways